Time;durP1;ratioP1;P1;durP2;ratioP2;P2;SDS_P1;SDS_P2;PMS_P1;PMS_P2;Temp;Humidity;BMP_temperature;BMP_pressure;BME280_temperature;BME280_humidity;BME280_pressure;Samples;Min_cycle;Max_cycle;Signal;HPM_P1;HPM_P2
2022/06/17 00:00:19;;;;;;;1.53;1.10;;;16.50;99.90;;;;;;5074180;28;20538;-71
2022/06/17 00:02:44;;;;;;;1.07;0.80;;;16.40;99.90;;;;;;5092235;28;20573;-72
2022/06/17 00:05:10;;;;;;;1.90;1.13;;;16.40;99.90;;;;;;5092560;28;20202;-72
2022/06/17 00:07:37;;;;;;;1.30;1.00;;;16.40;99.90;;;;;;5092820;28;20190;-71
2022/06/17 00:10:03;;;;;;;3.93;1.20;;;16.30;99.90;;;;;;5092857;28;20154;-71
2022/06/17 00:12:29;;;;;;;1.23;0.83;;;16.30;99.90;;;;;;5073414;28;20424;-72
2022/06/17 00:15:13;;;;;;;0.97;0.73;;;16.30;99.90;;;;;;5072849;28;20169;-72
2022/06/17 00:17:45;;;;;;;1.37;0.97;;;16.30;99.90;;;;;;5071304;28;20198;-71
2022/06/17 00:20:17;;;;;;;1.30;0.90;;;16.20;99.90;;;;;;5074367;28;20432;-71
2022/06/17 00:22:44;;;;;;;1.40;1.23;;;16.20;99.90;;;;;;5093713;28;20414;-71
2022/06/17 00:25:18;;;;;;;1.10;0.83;;;16.10;99.90;;;;;;5091403;28;20447;-71
2022/06/17 00:27:44;;;;;;;1.10;1.00;;;16.10;99.90;;;;;;5093311;28;20880;-71
2022/06/17 00:30:22;;;;;;;1.80;1.40;;;16.10;99.90;;;;;;5094480;28;20403;-71
2022/06/17 00:32:50;;;;;;;1.17;1.07;;;16.10;99.90;;;;;;5076924;28;20204;-71
2022/06/17 00:35:16;;;;;;;1.10;0.73;;;16.00;99.90;;;;;;5092085;28;20419;-71
2022/06/17 00:37:42;;;;;;;1.20;0.77;;;16.00;99.90;;;;;;5092246;28;20469;-71
2022/06/17 00:40:18;;;;;;;1.20;1.10;;;15.90;99.90;;;;;;5092467;28;20181;-71
2022/06/17 00:42:44;;;;;;;1.10;0.90;;;15.90;99.90;;;;;;5073502;28;20636;-71
2022/06/17 00:45:35;;;;;;;1.30;1.10;;;15.90;99.90;;;;;;5072149;28;20547;-71
2022/06/17 00:48:06;;;;;;;1.20;1.00;;;15.80;99.90;;;;;;5072030;28;20485;-71
2022/06/17 00:50:53;;;;;;;1.70;1.27;;;15.80;99.90;;;;;;5073637;28;20461;-71
2022/06/17 00:53:29;;;;;;;1.10;0.87;;;15.80;99.90;;;;;;5090894;28;20420;-71
2022/06/17 00:56:02;;;;;;;1.53;1.13;;;15.70;99.90;;;;;;5091886;28;20395;-71
2022/06/17 00:58:55;;;;;;;1.17;0.90;;;15.70;99.90;;;;;;5092197;28;20392;-71
2022/06/17 01:01:23;;;;;;;1.30;1.03;;;15.60;99.90;;;;;;5084208;28;20503;-70
2022/06/17 01:03:52;;;;;;;1.53;0.90;;;15.60;99.90;;;;;;5072544;28;20403;-71
2022/06/17 01:06:21;;;;;;;1.53;1.00;;;15.60;99.90;;;;;;5071516;28;20958;-71
2022/06/17 01:11:44;;;;;;;1.30;1.10;;;15.50;99.90;;;;;;5083398;28;20442;-71
2022/06/17 01:14:13;;;;;;;1.20;1.00;;;15.50;99.90;;;;;;5091631;28;20420;-71
2022/06/17 01:16:41;;;;;;;1.30;1.20;;;15.50;99.90;;;;;;5091796;28;20189;-71
2022/06/17 01:19:28;;;;;;;1.10;0.90;;;15.50;99.90;;;;;;5091917;28;20458;-71
2022/06/17 01:22:13;;;;;;;1.37;1.07;;;15.50;99.90;;;;;;5078595;28;20427;-72
2022/06/17 01:24:39;;;;;;;1.30;0.90;;;15.50;99.90;;;;;;5071403;28;20412;-71
2022/06/17 01:27:05;;;;;;;0.93;0.70;;;15.50;99.90;;;;;;5071883;28;20431;-71
2022/06/17 01:29:32;;;;;;;1.10;0.90;;;15.60;99.90;;;;;;5072118;28;20537;-72
2022/06/17 01:31:58;;;;;;;1.67;1.17;;;15.60;99.90;;;;;;5085359;28;20276;-71
2022/06/17 01:34:24;;;;;;;1.60;1.00;;;15.60;99.90;;;;;;5092204;28;20938;-71
2022/06/17 01:36:50;;;;;;;1.27;0.90;;;15.60;99.90;;;;;;5093490;28;20439;-72
2022/06/17 01:39:17;;;;;;;1.10;0.83;;;15.60;99.90;;;;;;5095830;28;20830;-71
2022/06/17 01:41:45;;;;;;;1.27;0.97;;;15.70;99.90;;;;;;5084479;28;20961;-71
2022/06/17 01:44:16;;;;;;;2.13;1.00;;;15.70;99.90;;;;;;5074344;28;20922;-71
2022/06/17 01:46:44;;;;;;;1.20;1.00;;;15.70;99.90;;;;;;5075341;28;20884;-71
2022/06/17 01:49:18;;;;;;;1.00;0.87;;;15.60;99.90;;;;;;5075289;28;20432;-70
2022/06/17 01:51:52;;;;;;;1.20;0.90;;;15.60;99.90;;;;;;5085886;28;20480;-70
2022/06/17 01:54:23;;;;;;;1.00;0.70;;;15.60;99.90;;;;;;5094755;28;20769;-71
2022/06/17 01:56:53;;;;;;;1.10;1.00;;;15.60;99.90;;;;;;5094263;28;20588;-71
2022/06/17 01:59:28;;;;;;;1.10;0.80;;;15.60;99.90;;;;;;5096087;28;20912;-71
2022/06/17 02:01:57;;;;;;;1.37;0.80;;;15.60;99.90;;;;;;5083391;28;20431;-71
2022/06/17 02:04:32;;;;;;;1.00;0.90;;;15.50;99.90;;;;;;5074687;28;20499;-71
2022/06/17 02:07:06;;;;;;;0.90;0.70;;;15.50;99.90;;;;;;5074947;28;20438;-71
2022/06/17 02:09:32;;;;;;;0.97;0.77;;;15.50;99.90;;;;;;5074961;28;20442;-71
2022/06/17 02:12:01;;;;;;;1.43;1.20;;;15.50;99.90;;;;;;5087055;28;20930;-72
2022/06/17 02:14:27;;;;;;;1.30;0.97;;;15.40;99.90;;;;;;5095654;28;20165;-71
2022/06/17 02:16:55;;;;;;;1.17;1.00;;;15.40;99.90;;;;;;5094994;28;20423;-71
2022/06/17 02:19:23;;;;;;;1.20;1.10;;;15.40;99.90;;;;;;5095180;28;20388;-71
2022/06/17 02:22:05;;;;;;;1.50;1.30;;;15.40;99.90;;;;;;5083112;28;20444;-71
2022/06/17 02:24:31;;;;;;;2.23;1.03;;;15.30;99.90;;;;;;5074310;28;20384;-71
2022/06/17 02:27:00;;;;;;;1.20;0.90;;;15.30;99.90;;;;;;5076029;28;20455;-72
2022/06/17 02:29:28;;;;;;;1.10;1.00;;;15.20;99.90;;;;;;5074703;28;20435;-71
2022/06/17 02:31:55;;;;;;;1.13;1.03;;;15.20;99.90;;;;;;5085339;28;20415;-71
2022/06/17 02:34:21;;;;;;;1.20;1.00;;;15.20;99.90;;;;;;5094448;28;20403;-71
2022/06/17 02:37:09;;;;;;;1.40;1.20;;;15.10;99.90;;;;;;5093803;28;20438;-71
2022/06/17 02:39:40;;;;;;;1.03;0.87;;;15.10;99.90;;;;;;5095683;28;20418;-71
2022/06/17 02:42:06;;;;;;;1.13;0.90;;;15.00;99.90;;;;;;5082395;28;20470;-71
2022/06/17 02:44:40;;;;;;;1.20;0.90;;;15.00;99.90;;;;;;5074764;28;21150;-71
2022/06/17 02:47:06;;;;;;;1.63;1.47;;;15.00;99.90;;;;;;5075853;28;20201;-71
2022/06/17 02:49:35;;;;;;;1.40;1.30;;;14.90;99.90;;;;;;5073720;28;20407;-71
2022/06/17 02:52:07;;;;;;;1.47;1.37;;;14.90;99.90;;;;;;5085559;28;20407;-71
2022/06/17 02:54:40;;;;;;;2.60;1.67;;;14.80;99.90;;;;;;5093816;28;20799;-72
2022/06/17 02:57:09;;;;;;;2.00;1.77;;;14.80;99.90;;;;;;5094721;28;20439;-71
2022/06/17 02:59:41;;;;;;;2.43;1.50;;;14.80;99.90;;;;;;5094332;28;20442;-71
2022/06/17 03:02:19;;;;;;;2.40;2.00;;;14.70;99.90;;;;;;5081768;28;20419;-71
2022/06/17 03:04:46;;;;;;;1.77;1.40;;;14.70;99.90;;;;;;5073740;28;20393;-70
2022/06/17 03:07:15;;;;;;;1.53;1.43;;;14.70;99.90;;;;;;5075455;28;20439;-71
2022/06/17 03:09:41;;;;;;;2.07;1.70;;;14.70;99.90;;;;;;5075986;28;20431;-71
2022/06/17 03:12:17;;;;;;;1.77;1.50;;;14.70;99.90;;;;;;5087620;28;20889;-71
2022/06/17 03:14:46;;;;;;;2.00;1.63;;;14.70;99.90;;;;;;5095845;28;20396;-70
2022/06/17 03:17:14;;;;;;;1.93;1.80;;;14.60;99.90;;;;;;5095911;28;20431;-71
2022/06/17 03:19:40;;;;;;;1.50;1.20;;;14.60;99.90;;;;;;5094237;28;20404;-71
2022/06/17 03:22:09;;;;;;;1.40;1.30;;;14.60;99.90;;;;;;5083175;28;20421;-73
2022/06/17 03:25:01;;;;;;;1.40;1.00;;;14.60;99.90;;;;;;5073387;28;20397;-71
2022/06/17 03:27:34;;;;;;;1.90;1.77;;;14.60;99.90;;;;;;5072321;28;20440;-71
2022/06/17 03:30:01;;;;;;;2.00;1.80;;;14.60;99.90;;;;;;5075529;28;20491;-70
2022/06/17 03:32:33;;;;;;;1.70;1.50;;;14.60;99.90;;;;;;5086960;28;20403;-71
2022/06/17 03:34:59;;;;;;;1.60;1.40;;;14.60;99.90;;;;;;5093345;28;20773;-71
2022/06/17 03:37:38;;;;;;;2.00;1.80;;;14.60;99.90;;;;;;5093446;28;20419;-71
2022/06/17 03:40:14;;;;;;;2.80;1.53;;;14.60;99.90;;;;;;5093509;28;20302;-71
2022/06/17 03:43:29;;;;;;;2.00;1.80;;;14.60;99.90;;;;;;5078220;28;20479;-71
2022/06/17 03:46:04;;;;;;;1.53;1.43;;;14.60;99.90;;;;;;4994960;28;20533;-71
2022/06/17 03:48:39;;;;;;;2.13;1.80;;;14.60;99.90;;;;;;5011890;28;20968;-70
2022/06/17 03:51:05;;;;;;;2.57;1.40;;;14.60;99.90;;;;;;5048613;28;20419;-71
2022/06/17 03:53:36;;;;;;;1.40;1.10;;;14.60;99.90;;;;;;5094603;28;20790;-71
2022/06/17 03:56:12;;;;;;;1.60;1.30;;;14.70;99.90;;;;;;5094713;28;20436;-69
2022/06/17 03:58:40;;;;;;;1.40;1.10;;;14.70;99.90;;;;;;5096290;28;20403;-71
2022/06/17 04:01:14;;;;;;;1.70;1.47;;;14.70;99.90;;;;;;5091208;28;20482;-71
2022/06/17 04:03:42;;;;;;;3.17;1.90;;;14.70;99.90;;;;;;5072779;28;20404;-70
2022/06/17 04:06:15;;;;;;;2.17;1.67;;;14.80;99.90;;;;;;5070895;28;20539;-70
2022/06/17 04:09:00;;;;;;;2.23;2.13;;;14.80;99.90;;;;;;5073101;28;20767;-71
2022/06/17 04:11:33;;;;;;;1.60;1.50;;;14.80;99.90;;;;;;5076780;28;20424;-70
2022/06/17 04:14:03;;;;;;;1.77;1.67;;;14.90;99.90;;;;;;5092816;28;20396;-71
2022/06/17 04:16:44;;;;;;;2.10;1.90;;;15.00;99.90;;;;;;5091064;28;20438;-71
2022/06/17 04:19:14;;;;;;;3.10;1.93;;;15.00;99.90;;;;;;5092692;28;20407;-70
2022/06/17 04:21:40;;;;;;;3.10;2.00;;;15.00;99.90;;;;;;5088854;28;20526;-71
2022/06/17 04:24:13;;;;;;;2.40;1.90;;;15.10;99.90;;;;;;5074115;28;20436;-70
2022/06/17 04:26:41;;;;;;;3.00;1.93;;;15.10;99.90;;;;;;5072272;28;20280;-71
2022/06/17 04:29:12;;;;;;;2.13;1.93;;;15.20;99.90;;;;;;5071079;28;20404;-69
2022/06/17 04:31:38;;;;;;;3.70;2.90;;;15.20;99.90;;;;;;5077243;28;20426;-70
2022/06/17 04:34:11;;;;;;;2.43;2.23;;;15.20;99.90;;;;;;5094570;28;20408;-71
2022/06/17 04:36:42;;;;;;;3.70;2.40;;;15.20;99.90;;;;;;5094673;28;20291;-71
2022/06/17 04:39:28;;;;;;;4.30;3.10;;;15.20;99.90;;;;;;5092515;28;20411;-71
2022/06/17 04:41:57;;;;;;;2.80;2.17;;;15.30;99.90;;;;;;5085149;28;20426;-71
2022/06/17 04:44:23;;;;;;;2.67;2.47;;;15.30;99.90;;;;;;5071918;28;20487;-71
2022/06/17 04:46:58;;;;;;;3.67;2.60;;;15.40;99.90;;;;;;5071940;28;20455;-71
2022/06/17 04:49:27;;;;;;;2.33;1.97;;;15.50;99.90;;;;;;5070995;28;20440;-71
2022/06/17 04:51:58;;;;;;;3.17;2.87;;;15.50;99.90;;;;;;5080289;28;20415;-71
2022/06/17 04:54:24;;;;;;;3.50;3.20;;;15.60;99.90;;;;;;5094692;28;20428;-70
2022/06/17 04:56:52;;;;;;;4.70;3.33;;;15.70;99.90;;;;;;5098841;28;20420;-71
2022/06/17 04:59:32;;;;;;;3.60;3.27;;;15.80;99.90;;;;;;5099435;28;20475;-71
2022/06/17 05:01:59;;;;;;;6.03;3.27;;;15.90;99.90;;;;;;5074939;28;20420;-69
2022/06/17 05:04:25;;;;;;;3.57;3.30;;;16.00;99.90;;;;;;5071717;28;20400;-70
2022/06/17 05:06:51;;;;;;;6.17;4.30;;;16.10;99.90;;;;;;5071768;28;20498;-70
2022/06/17 05:09:29;;;;;;;4.37;3.97;;;16.20;99.90;;;;;;5071758;28;20428;-70
2022/06/17 05:12:00;;;;;;;3.67;3.17;;;16.30;99.90;;;;;;5086150;28;20238;-70
2022/06/17 05:14:41;;;;;;;3.77;3.10;;;16.40;99.90;;;;;;5091867;28;20400;-70
2022/06/17 05:17:07;;;;;;;2.80;2.60;;;16.50;99.90;;;;;;5092020;28;20473;-70
2022/06/17 05:19:33;;;;;;;6.17;3.20;;;16.70;99.90;;;;;;5092019;28;20391;-70
2022/06/17 05:22:00;;;;;;;3.77;3.47;;;16.80;99.90;;;;;;5076398;28;20846;-71
2022/06/17 05:24:27;;;;;;;2.63;2.43;;;17.00;99.90;;;;;;5071557;28;20524;-70
2022/06/17 05:26:53;;;;;;;4.13;3.73;;;17.10;99.90;;;;;;5071754;28;20460;-71
2022/06/17 05:29:19;;;;;;;4.73;4.17;;;17.30;99.90;;;;;;5070412;28;20465;-71
2022/06/17 05:31:49;;;;;;;6.50;2.90;;;17.40;99.90;;;;;;5086465;28;20579;-72
2022/06/17 05:34:15;;;;;;;3.97;3.47;;;17.50;99.90;;;;;;5093928;28;20177;-71
2022/06/17 05:36:41;;;;;;;4.20;3.40;;;17.60;99.90;;;;;;5091881;28;20449;-71
2022/06/17 05:39:07;;;;;;;3.27;2.97;;;17.70;99.90;;;;;;5091931;28;20399;-70
2022/06/17 05:41:32;;;;;;;4.03;3.07;;;17.80;99.90;;;;;;5080291;28;20241;-71
2022/06/17 05:43:58;;;;;;;3.43;3.03;;;17.90;99.90;;;;;;5071583;28;20170;-71
2022/06/17 05:46:23;;;;;;;6.53;3.47;;;18.10;99.90;;;;;;5071201;28;20289;-71
2022/06/17 05:48:49;;;;;;;4.13;3.70;;;18.30;99.90;;;;;;5071538;28;20162;-71
2022/06/17 05:51:14;;;;;;;3.77;3.13;;;18.60;99.90;;;;;;5079801;28;20177;-71
2022/06/17 05:53:40;;;;;;;9.57;4.50;;;18.90;99.90;;;;;;5091834;28;20520;-72
2022/06/17 05:56:06;;;;;;;3.80;3.13;;;19.30;99.90;;;;;;5097072;28;20176;-72
2022/06/17 05:58:32;;;;;;;4.03;3.67;;;19.60;99.90;;;;;;5098154;28;20169;-71
2022/06/17 06:00:57;;;;;;;4.30;3.90;;;19.90;99.90;;;;;;5087711;28;20429;-71
2022/06/17 06:03:25;;;;;;;6.23;3.73;;;20.20;99.90;;;;;;5071731;28;20186;-71
2022/06/17 06:05:51;;;;;;;3.60;3.30;;;20.40;99.90;;;;;;5069855;28;20209;-71
2022/06/17 06:08:16;;;;;;;3.90;3.27;;;20.60;99.90;;;;;;5071296;28;20797;-71
2022/06/17 06:10:43;;;;;;;5.23;4.73;;;20.70;99.90;;;;;;5071500;28;20177;-72
2022/06/17 06:13:18;;;;;;;2.97;2.77;;;20.90;99.90;;;;;;5069855;28;20181;-71
2022/06/17 06:15:46;;;;;;;5.30;4.13;;;21.00;99.90;;;;;;5070949;28;20783;-71
2022/06/17 06:18:18;;;;;;;4.23;3.57;;;21.20;99.90;;;;;;5071067;28;20428;-72
2022/06/17 06:20:43;;;;;;;4.67;4.23;;;21.40;99.90;;;;;;5090701;28;20576;-72
2022/06/17 06:23:10;;;;;;;4.17;3.80;;;21.60;99.90;;;;;;5091511;28;20949;-71
2022/06/17 06:25:35;;;;;;;5.40;3.57;;;21.80;99.90;;;;;;5094579;28;20204;-71
2022/06/17 06:28:09;;;;;;;3.60;2.50;;;21.80;99.90;;;;;;5094810;28;20416;-72
2022/06/17 06:30:35;;;;;;;3.20;2.90;;;21.90;99.90;;;;;;5076433;28;20179;-72
2022/06/17 06:33:02;;;;;;;3.63;2.73;;;22.00;99.90;;;;;;5074459;28;20404;-72
2022/06/17 06:35:31;;;;;;;6.93;2.80;;;22.40;99.90;;;;;;5074419;28;20206;-72
2022/06/17 06:37:57;;;;;;;6.87;3.10;;;23.00;99.90;;;;;;5090732;28;20480;-72
2022/06/17 06:40:22;;;;;;;4.00;3.67;;;23.70;99.90;;;;;;5094652;28;20866;-71
2022/06/17 06:42:50;;;;;;;3.23;2.93;;;24.60;99.90;;;;;;5094552;28;20177;-72
2022/06/17 06:45:20;;;;;;;4.60;2.77;;;25.60;99.90;;;;;;5094179;28;20197;-72
2022/06/17 06:47:46;;;;;;;2.33;2.13;;;26.60;99.90;;;;;;5080981;28;20424;-73
2022/06/17 06:50:19;;;;;;;4.93;3.83;;;27.60;99.90;;;;;;5077948;28;20432;-73
2022/06/17 06:52:45;;;;;;;3.27;2.53;;;28.30;99.90;;;;;;5077233;28;20403;-73
2022/06/17 06:55:11;;;;;;;3.30;2.57;;;29.00;99.90;;;;;;5077971;28;20424;-73
2022/06/17 06:57:58;;;;;;;2.40;2.20;;;29.60;96.10;;;;;;5087445;28;20443;-72
2022/06/17 07:00:28;;;;;;;3.97;3.00;;;30.20;90.70;;;;;;5095118;28;20493;-72
2022/06/17 07:02:54;;;;;;;4.03;1.97;;;30.70;84.40;;;;;;5095375;28;20404;-73
2022/06/17 07:05:20;;;;;;;2.37;2.17;;;31.20;76.60;;;;;;5093033;28;20504;-72
2022/06/17 07:07:47;;;;;;;5.20;2.00;;;31.50;71.80;;;;;;5080716;28;20222;-72
2022/06/17 07:10:16;;;;;;;2.07;1.90;;;31.70;67.00;;;;;;5073831;28;20672;-73
2022/06/17 07:12:42;;;;;;;2.53;2.33;;;32.10;65.30;;;;;;5073765;28;20780;-73
2022/06/17 07:15:09;;;;;;;2.97;2.27;;;32.70;62.10;;;;;;5073505;28;20412;-74
2022/06/17 07:17:34;;;;;;;2.00;1.80;;;33.20;57.90;;;;;;5084700;28;20440;-72
2022/06/17 07:20:00;;;;;;;2.70;2.13;;;33.60;55.50;;;;;;5093861;28;20413;-73
2022/06/17 07:22:25;;;;;;;2.33;1.90;;;34.20;54.30;;;;;;5093721;28;20172;-72
2022/06/17 07:24:51;;;;;;;1.97;1.70;;;34.40;52.50;;;;;;5092257;28;20648;-73
2022/06/17 07:27:18;;;;;;;2.30;2.10;;;34.70;50.90;;;;;;5084732;28;20664;-73
2022/06/17 07:29:43;;;;;;;2.27;2.07;;;34.60;49.60;;;;;;5075398;28;20625;-73
2022/06/17 07:32:09;;;;;;;2.13;1.93;;;34.40;49.10;;;;;;5073432;28;20404;-72
2022/06/17 07:34:34;;;;;;;2.00;1.90;;;33.90;48.70;;;;;;5072606;28;20162;-72
2022/06/17 07:39:53;;;;;;;2.00;1.60;;;34.10;49.50;;;;;;5093600;28;20544;-73
2022/06/17 07:42:19;;;;;;;1.87;1.53;;;34.20;49.00;;;;;;5093470;28;20850;-70
2022/06/17 07:44:44;;;;;;;1.70;1.60;;;34.00;49.00;;;;;;5094486;28;20494;-73
2022/06/17 07:47:16;;;;;;;3.10;1.83;;;33.60;48.60;;;;;;5089240;28;20281;-73
2022/06/17 07:49:42;;;;;;;1.60;1.50;;;33.10;47.90;;;;;;5073294;28;20166;-73
2022/06/17 07:52:08;;;;;;;1.97;1.80;;;33.60;48.70;;;;;;5073979;28;20825;-73
2022/06/17 07:54:34;;;;;;;2.33;1.80;;;34.10;48.30;;;;;;5073838;28;20189;-74
2022/06/17 07:57:00;;;;;;;3.83;2.63;;;34.60;47.90;;;;;;5081997;28;20471;-73
2022/06/17 07:59:26;;;;;;;2.90;2.07;;;35.80;47.80;;;;;;5093111;28;20423;-73
2022/06/17 08:01:51;;;;;;;3.40;1.90;;;36.80;46.10;;;;;;5097161;28;20161;-73
2022/06/17 08:04:17;;;;;;;1.70;1.60;;;37.50;44.50;;;;;;5096860;28;20162;-73
2022/06/17 08:06:49;;;;;;;1.63;1.53;;;38.10;43.20;;;;;;5090541;28;20228;-73
2022/06/17 08:09:21;;;;;;;1.60;1.50;;;38.50;42.00;;;;;;5077832;28;20401;-72
2022/06/17 08:11:48;;;;;;;2.47;1.80;;;39.00;41.00;;;;;;5074496;28;20498;-71
2022/06/17 08:14:14;;;;;;;1.73;1.47;;;39.40;39.90;;;;;;5072439;28;20482;-72
2022/06/17 08:16:40;;;;;;;1.77;1.67;;;39.70;39.00;;;;;;5074210;28;20467;-72
2022/06/17 08:19:07;;;;;;;2.93;1.70;;;40.10;37.60;;;;;;5093555;28;20185;-73
2022/06/17 08:21:34;;;;;;;1.73;1.63;;;40.50;37.20;;;;;;5098646;28;20165;-73
2022/06/17 08:24:00;;;;;;;1.60;1.50;;;40.70;36.30;;;;;;5095143;28;20467;-72
2022/06/17 08:26:26;;;;;;;1.70;1.60;;;41.10;35.50;;;;;;5092308;28;20994;-72
2022/06/17 08:28:52;;;;;;;1.90;1.80;;;41.20;34.90;;;;;;5072948;28;20400;-72
2022/06/17 08:31:17;;;;;;;1.83;1.70;;;41.60;34.60;;;;;;5072872;28;20375;-72
2022/06/17 08:33:43;;;;;;;2.07;1.80;;;42.50;34.10;;;;;;5073789;28;20163;-73
2022/06/17 08:36:12;;;;;;;2.30;2.00;;;43.70;33.00;;;;;;5077490;28;20173;-73
2022/06/17 08:38:43;;;;;;;2.30;2.20;;;44.80;31.80;;;;;;5096204;28;20191;-74
2022/06/17 08:41:32;;;;;;;1.70;1.60;;;45.10;30.40;;;;;;5094295;28;20919;-73
2022/06/17 08:44:10;;;;;;;2.30;2.10;;;45.60;30.00;;;;;;5094887;28;20354;-72
2022/06/17 08:46:58;;;;;;;2.03;1.83;;;46.00;28.90;;;;;;5090709;28;20979;-72
2022/06/17 08:49:26;;;;;;;1.90;1.70;;;46.90;28.40;;;;;;5072089;28;20395;-72
2022/06/17 08:52:13;;;;;;;2.43;1.57;;;47.80;27.70;;;;;;5072076;28;20448;-72
2022/06/17 08:55:02;;;;;;;1.73;1.63;;;48.80;26.70;;;;;;5071633;28;20391;-73
2022/06/17 08:57:47;;;;;;;1.90;1.80;;;49.50;26.00;;;;;;5072422;28;20407;-73
2022/06/17 09:00:15;;;;;;;1.70;1.60;;;49.70;25.20;;;;;;5072128;28;20363;-72
2022/06/17 09:02:55;;;;;;;1.87;1.67;;;50.00;25.00;;;;;;5071856;28;20368;-72
2022/06/17 09:05:35;;;;;;;1.83;1.73;;;50.30;24.50;;;;;;5071572;28;20418;-73
2022/06/17 09:08:31;;;;;;;2.07;1.90;;;50.40;24.40;;;;;;5082943;28;20471;-73
2022/06/17 09:11:12;;;;;;;2.10;2.00;;;50.50;24.30;;;;;;5092618;28;20402;-73
2022/06/17 09:14:05;;;;;;;2.00;1.73;;;50.70;24.30;;;;;;5093957;28;20404;-73
2022/06/17 09:16:50;;;;;;;1.83;1.73;;;50.90;24.20;;;;;;5098051;28;21043;-73
2022/06/17 09:19:21;;;;;;;1.80;1.70;;;51.00;23.90;;;;;;5073407;28;20400;-73
2022/06/17 09:21:50;;;;;;;2.23;2.03;;;51.60;23.90;;;;;;5072485;28;20386;-73
2022/06/17 09:24:31;;;;;;;1.90;1.80;;;52.00;23.60;;;;;;5071732;28;20400;-73
2022/06/17 09:27:01;;;;;;;1.87;1.77;;;52.20;23.20;;;;;;5071735;28;20460;-73
2022/06/17 09:29:44;;;;;;;1.83;1.73;;;52.40;22.60;;;;;;5087000;28;20407;-73
2022/06/17 09:32:36;;;;;;;2.03;1.93;;;52.80;22.50;;;;;;5087996;28;20378;-74
2022/06/17 09:35:04;;;;;;;1.93;1.80;;;53.20;22.10;;;;;;5084405;28;20396;-73
2022/06/17 09:37:39;;;;;;;2.00;1.90;;;53.70;22.00;;;;;;5086858;28;20523;-74
2022/06/17 09:40:34;;;;;;;1.97;1.87;;;54.00;21.70;;;;;;5082726;28;20406;-72
2022/06/17 09:43:12;;;;;;;1.70;1.60;;;54.60;21.00;;;;;;5064883;28;20420;-73
2022/06/17 09:46:03;;;;;;;1.80;1.70;;;54.90;21.10;;;;;;5070398;28;20551;-74
2022/06/17 09:48:44;;;;;;;2.47;2.27;;;55.30;20.70;;;;;;5080236;28;20411;-73
2022/06/17 09:51:17;;;;;;;2.50;2.10;;;55.60;20.40;;;;;;5082586;28;20480;-72
2022/06/17 09:53:51;;;;;;;1.87;1.77;;;55.90;20.50;;;;;;5079719;28;20449;-73
2022/06/17 09:56:26;;;;;;;2.33;2.07;;;56.10;20.50;;;;;;5071466;28;20517;-72
2022/06/17 09:59:04;;;;;;;1.90;1.80;;;56.30;20.40;;;;;;5073286;28;20451;-73
2022/06/17 10:01:30;;;;;;;1.97;1.87;;;56.40;20.00;;;;;;5075398;28;20400;-73
2022/06/17 10:03:57;;;;;;;2.10;2.00;;;56.50;20.00;;;;;;5075245;28;20404;-73
2022/06/17 10:06:53;;;;;;;2.40;2.30;;;56.60;20.10;;;;;;5074887;28;20428;-72
2022/06/17 10:09:29;;;;;;;2.20;2.00;;;56.80;19.90;;;;;;5075049;28;20554;-73
2022/06/17 10:12:07;;;;;;;2.57;2.37;;;57.00;20.10;;;;;;5075147;28;20407;-72
2022/06/17 10:14:35;;;;;;;2.10;2.00;;;57.10;20.10;;;;;;5085006;28;20415;-73
2022/06/17 10:20:19;;;;;;;2.30;2.20;;;57.50;19.70;;;;;;5086242;28;20404;-73
2022/06/17 10:23:05;;;;;;;2.40;2.30;;;57.60;19.40;;;;;;5091873;28;20825;-73
2022/06/17 10:25:46;;;;;;;2.10;2.00;;;57.80;19.30;;;;;;5094856;28;20403;-73
2022/06/17 10:28:49;;;;;;;2.53;2.43;;;58.10;19.50;;;;;;5094985;28;20423;-73
2022/06/17 10:31:20;;;;;;;2.73;2.57;;;58.30;19.00;;;;;;5083931;28;20419;-72
2022/06/17 10:33:46;;;;;;;2.30;2.20;;;58.40;19.00;;;;;;5083353;28;20761;-73
2022/06/17 10:36:14;;;;;;;2.63;2.53;;;58.40;18.60;;;;;;5091327;28;20465;-73
2022/06/17 10:38:45;;;;;;;2.40;2.30;;;58.30;18.50;;;;;;5095001;28;20174;-72
2022/06/17 10:41:12;;;;;;;2.17;2.07;;;58.30;18.60;;;;;;5094780;28;20455;-73
2022/06/17 10:43:41;;;;;;;2.40;2.30;;;58.30;18.70;;;;;;5093967;28;20435;-73
2022/06/17 10:46:21;;;;;;;2.40;2.30;;;58.30;18.60;;;;;;5094194;28;20411;-73
2022/06/17 10:48:54;;;;;;;2.30;2.20;;;58.40;18.70;;;;;;5094526;28;20773;-73
2022/06/17 10:51:20;;;;;;;2.87;2.67;;;58.60;18.50;;;;;;5094525;28;20467;-73
2022/06/17 10:53:49;;;;;;;2.10;2.00;;;59.00;19.00;;;;;;5094342;28;20427;-73
2022/06/17 10:56:26;;;;;;;2.87;2.70;;;59.50;19.10;;;;;;5080231;28;20216;-73
2022/06/17 10:59:00;;;;;;;3.03;2.93;;;59.90;18.50;;;;;;5074361;28;20411;-73
2022/06/17 11:01:45;;;;;;;3.30;3.10;;;59.70;18.10;;;;;;5072848;28;20890;-73
2022/06/17 11:04:17;;;;;;;2.27;2.17;;;58.60;18.00;;;;;;5073864;28;20533;-73
2022/06/17 11:06:52;;;;;;;2.70;2.60;;;57.90;18.30;;;;;;5072579;28;20989;-72
2022/06/17 11:09:52;;;;;;;2.20;2.10;;;57.30;18.40;;;;;;5088341;28;20497;-72
2022/06/17 11:12:27;;;;;;;2.40;2.30;;;56.90;18.00;;;;;;5070328;28;20421;-72
2022/06/17 11:14:55;;;;;;;2.20;2.10;;;56.50;18.20;;;;;;5073636;28;20922;-73
2022/06/17 11:17:35;;;;;;;2.30;2.20;;;56.40;18.70;;;;;;5073700;28;20463;-73
2022/06/17 11:20:26;;;;;;;2.40;2.27;;;56.60;18.80;;;;;;5079835;28;20767;-73
2022/06/17 11:22:59;;;;;;;2.20;2.10;;;57.20;19.10;;;;;;5067790;28;20464;-72
2022/06/17 11:25:31;;;;;;;2.20;2.10;;;57.60;18.70;;;;;;5073401;28;20443;-73
2022/06/17 11:27:59;;;;;;;2.63;2.53;;;57.90;18.70;;;;;;5073353;28;20424;-73
2022/06/17 11:30:25;;;;;;;2.57;2.47;;;58.20;18.60;;;;;;5073491;28;20416;-73
2022/06/17 11:32:52;;;;;;;2.80;2.70;;;58.30;18.30;;;;;;5088543;28;20485;-73
2022/06/17 11:35:24;;;;;;;2.70;2.50;;;58.60;18.40;;;;;;5093334;28;20196;-73
2022/06/17 11:37:52;;;;;;;2.50;2.40;;;58.80;17.90;;;;;;5092529;28;20973;-73
2022/06/17 11:40:28;;;;;;;2.90;2.70;;;58.80;18.00;;;;;;5093548;28;20890;-73
2022/06/17 11:42:57;;;;;;;2.23;2.13;;;58.70;18.10;;;;;;5093458;28;20950;-73
2022/06/17 11:45:44;;;;;;;2.33;2.23;;;58.00;18.10;;;;;;5073569;28;20420;-72
2022/06/17 11:48:15;;;;;;;2.50;2.40;;;56.90;18.30;;;;;;5073095;28;20416;-72
2022/06/17 11:51:01;;;;;;;2.47;2.27;;;55.80;18.20;;;;;;5073126;28;20895;-73
2022/06/17 11:53:28;;;;;;;1.83;1.70;;;54.80;18.50;;;;;;5072898;28;20424;-72
2022/06/17 11:55:53;;;;;;;1.90;1.80;;;54.20;18.90;;;;;;5080897;28;20441;-72
2022/06/17 11:58:20;;;;;;;1.77;1.67;;;54.00;19.10;;;;;;5093238;28;20482;-73
2022/06/17 12:00:52;;;;;;;1.60;1.50;;;54.20;19.30;;;;;;5093208;28;20200;-72
2022/06/17 12:03:42;;;;;;;2.50;2.33;;;54.60;19.20;;;;;;5093125;28;20452;-72
2022/06/17 12:06:21;;;;;;;1.90;1.80;;;55.20;19.10;;;;;;5091439;28;20408;-73
2022/06/17 12:09:10;;;;;;;1.80;1.70;;;55.70;19.20;;;;;;5071419;28;20423;-73
2022/06/17 12:11:50;;;;;;;2.80;2.03;;;56.40;19.50;;;;;;5072786;28;20465;-72
2022/06/17 12:14:33;;;;;;;2.23;2.03;;;57.20;19.60;;;;;;5072517;28;20407;-72
2022/06/17 12:16:59;;;;;;;2.30;2.20;;;57.50;18.90;;;;;;5078956;28;20466;-73
2022/06/17 12:19:25;;;;;;;2.40;2.30;;;57.50;18.50;;;;;;5092796;28;20763;-72
2022/06/17 12:21:57;;;;;;;2.63;2.13;;;57.50;18.50;;;;;;5092588;28;20408;-73
2022/06/17 12:24:49;;;;;;;2.37;2.27;;;57.50;18.70;;;;;;5092484;28;20161;-73
2022/06/17 12:27:23;;;;;;;2.57;2.43;;;57.80;18.90;;;;;;5083538;28;20440;-72
2022/06/17 12:30:03;;;;;;;2.53;2.43;;;58.00;18.60;;;;;;5072473;28;20409;-73
2022/06/17 12:32:42;;;;;;;2.57;2.47;;;58.00;18.30;;;;;;5072437;28;20431;-73
2022/06/17 12:35:17;;;;;;;2.43;2.33;;;58.10;18.30;;;;;;5072138;28;20414;-73
2022/06/17 12:38:11;;;;;;;2.70;2.50;;;58.10;18.40;;;;;;5092346;28;20427;-72
2022/06/17 12:41:00;;;;;;;5.40;2.40;;;58.20;18.50;;;;;;5092505;28;20391;-72
2022/06/17 12:43:36;;;;;;;2.50;2.40;;;58.00;18.40;;;;;;5092473;28;20431;-73
2022/06/17 12:46:11;;;;;;;2.50;2.40;;;57.90;18.30;;;;;;5083974;28;20420;-73
2022/06/17 12:53:13;;;;;;;2.60;2.50;;;57.60;18.20;;;;;;5070743;28;20446;-73
2022/06/17 12:54:52;;;;;;;2.20;2.10;;;57.10;18.50;;;;;;5071593;28;20423;-72
2022/06/17 12:57:42;;;;;;;2.20;2.10;;;56.70;18.70;;;;;;5071751;28;20973;-72
2022/06/17 13:00:25;;;;;;;2.10;2.00;;;56.00;18.40;;;;;;5071809;28;20469;-72
2022/06/17 13:03:22;;;;;;;2.07;1.97;;;54.60;18.80;;;;;;5079056;28;20427;-71
2022/06/17 13:05:48;;;;;;;2.10;2.00;;;53.50;18.90;;;;;;5090611;28;20468;-72
2022/06/17 13:08:55;;;;;;;2.00;1.90;;;52.30;19.30;;;;;;5092033;28;20451;-72
2022/06/17 13:11:35;;;;;;;1.80;1.70;;;51.30;19.90;;;;;;5092030;28;20401;-72
2022/06/17 13:14:22;;;;;;;1.80;1.70;;;50.20;20.40;;;;;;5090289;28;20826;-71
2022/06/17 13:16:59;;;;;;;1.57;1.47;;;49.20;20.70;;;;;;5091825;28;20455;-71
2022/06/17 13:19:54;;;;;;;1.70;1.60;;;48.20;21.10;;;;;;5091829;28;20400;-72
2022/06/17 13:22:28;;;;;;;1.93;1.83;;;47.20;21.40;;;;;;5088189;28;20485;-71
2022/06/17 13:25:03;;;;;;;2.20;2.10;;;46.10;21.50;;;;;;5071332;28;20403;-71
2022/06/17 13:27:50;;;;;;;1.73;1.63;;;45.10;21.90;;;;;;5071485;28;20509;-70